Time;durP1;ratioP1;P1;durP2;ratioP2;P2;SDS_P1;SDS_P2;PMS_P1;PMS_P2;Temp;Humidity;BMP_temperature;BMP_pressure;BME280_temperature;BME280_humidity;BME280_pressure;Samples;Min_cycle;Max_cycle;Signal;HPM_P1;HPM_P2
2022/01/05 00:01:41;;;;;;;0.47;0.35;;;4.10;99.90;;;;;;5083967;28;20671;-59
2022/01/05 00:04:21;;;;;;;0.30;0.30;;;4.10;99.90;;;;;;5082743;28;20667;-59
2022/01/05 00:07:01;;;;;;;0.30;0.30;;;4.00;99.90;;;;;;5083205;28;20679;-59
2022/01/05 00:09:41;;;;;;;0.30;0.20;;;4.00;99.90;;;;;;5099451;27;21210;-58
2022/01/05 00:12:20;;;;;;;0.25;0.25;;;4.00;99.90;;;;;;5083165;27;21146;-59
2022/01/05 00:15:01;;;;;;;0.40;0.30;;;4.00;99.90;;;;;;5083268;28;20676;-59
2022/01/05 00:17:40;;;;;;;0.17;0.17;;;3.90;99.90;;;;;;5081497;28;20701;-59
2022/01/05 00:20:20;;;;;;;0.40;0.40;;;3.90;99.90;;;;;;5081708;28;20668;-59
2022/01/05 00:23:00;;;;;;;0.40;0.40;;;3.90;99.90;;;;;;5068982;28;21018;-59
2022/01/05 00:25:40;;;;;;;0.10;0.10;;;3.80;99.90;;;;;;5083819;27;20969;-59
2022/01/05 00:28:19;;;;;;;0.22;0.22;;;3.80;99.90;;;;;;5083007;27;20723;-59
2022/01/05 00:30:59;;;;;;;0.20;0.20;;;3.80;99.90;;;;;;5102971;27;20573;-59
2022/01/05 00:33:39;;;;;;;0.30;0.30;;;3.70;99.90;;;;;;5125045;27;20957;-59
2022/01/05 00:36:19;;;;;;;0.75;0.68;;;3.70;99.90;;;;;;5084196;27;20555;-59
2022/01/05 00:38:59;;;;;;;0.38;0.20;;;3.70;99.90;;;;;;5084988;27;21026;-59
2022/01/05 00:41:39;;;;;;;0.40;0.38;;;3.70;99.90;;;;;;5084824;27;20561;-59
2022/01/05 00:44:19;;;;;;;0.28;0.28;;;3.70;99.90;;;;;;5084872;27;20982;-59
2022/01/05 00:46:58;;;;;;;0.20;0.20;;;3.80;99.90;;;;;;5084428;27;20546;-59
2022/01/05 00:49:38;;;;;;;0.55;0.20;;;3.80;99.90;;;;;;5145588;27;21022;-59
2022/01/05 00:52:18;;;;;;;0.20;0.20;;;3.70;99.90;;;;;;5146122;27;20638;-59
2022/01/05 00:54:58;;;;;;;0.28;0.17;;;3.70;99.90;;;;;;5083852;28;20648;-59
2022/01/05 00:57:37;;;;;;;0.52;0.52;;;3.70;99.90;;;;;;5105015;27;20662;-59
2022/01/05 01:00:17;;;;;;;0.20;0.20;;;3.70;99.90;;;;;;5104505;27;20553;-59
2022/01/05 01:02:57;;;;;;;0.20;0.03;;;3.70;99.90;;;;;;5084458;27;20580;-59
2022/01/05 01:05:37;;;;;;;0.10;0.10;;;3.70;99.90;;;;;;5104030;27;20542;-59
2022/01/05 01:08:17;;;;;;;0.10;0.10;;;3.70;99.90;;;;;;5125563;27;20540;-59
2022/01/05 01:10:57;;;;;;;0.38;0.20;;;3.70;99.90;;;;;;5145606;27;20539;-59
2022/01/05 01:13:37;;;;;;;0.20;0.20;;;3.70;99.90;;;;;;5084468;28;20664;-59
2022/01/05 01:16:16;;;;;;;0.38;0.38;;;3.70;99.90;;;;;;5104400;27;20677;-59
2022/01/05 01:18:56;;;;;;;0.30;0.22;;;3.70;99.90;;;;;;5085050;28;21213;-59
2022/01/05 01:21:36;;;;;;;0.30;0.30;;;3.70;99.90;;;;;;5084311;28;20869;-59
2022/01/05 01:24:16;;;;;;;0.43;0.43;;;3.80;99.90;;;;;;5104780;27;20654;-59
2022/01/05 01:26:56;;;;;;;0.30;0.30;;;3.80;99.90;;;;;;5085259;28;20668;-59
2022/01/05 01:29:35;;;;;;;0.17;0.17;;;3.80;99.90;;;;;;5084606;27;20699;-59
2022/01/05 01:32:15;;;;;;;0.20;0.20;;;3.80;99.90;;;;;;5085003;27;20544;-59
2022/01/05 01:34:55;;;;;;;0.10;0.10;;;3.80;99.90;;;;;;5125466;27;20540;-59
2022/01/05 01:37:35;;;;;;;0.40;0.40;;;3.80;99.90;;;;;;5084927;28;20659;-59
2022/01/05 01:40:15;;;;;;;0.75;0.75;;;3.80;99.90;;;;;;5084100;28;20547;-59
2022/01/05 01:42:55;;;;;;;0.47;0.45;;;3.80;99.90;;;;;;5084944;27;20539;-59
2022/01/05 01:45:35;;;;;;;0.93;0.93;;;3.80;99.90;;;;;;5104250;27;20533;-59
2022/01/05 01:48:14;;;;;;;0.60;0.60;;;3.70;99.90;;;;;;5146007;27;20539;-59
2022/01/05 01:50:54;;;;;;;1.45;1.38;;;3.80;99.90;;;;;;5084511;27;20676;-59
2022/01/05 01:53:34;;;;;;;0.50;0.50;;;3.70;99.90;;;;;;5084436;28;20675;-59
2022/01/05 01:56:15;;;;;;;0.57;0.57;;;3.70;99.90;;;;;;5083674;27;20535;-59
2022/01/05 01:58:55;;;;;;;0.20;0.20;;;3.70;99.90;;;;;;5084459;27;20577;-59
2022/01/05 02:01:35;;;;;;;0.20;0.20;;;3.70;99.90;;;;;;5104378;27;20665;-59
2022/01/05 02:04:15;;;;;;;0.45;0.45;;;3.70;99.90;;;;;;5124989;27;20951;-59
2022/01/05 02:06:55;;;;;;;0.95;0.95;;;3.70;99.90;;;;;;5146176;27;21030;-59
2022/01/05 02:09:35;;;;;;;0.55;0.47;;;3.70;99.90;;;;;;5084052;27;20915;-59
2022/01/05 02:12:14;;;;;;;0.60;0.60;;;3.70;99.90;;;;;;5084942;27;20566;-59
2022/01/05 02:14:54;;;;;;;0.40;0.40;;;3.70;99.90;;;;;;5083929;28;20687;-59
2022/01/05 02:17:45;;;;;;;0.52;0.52;;;3.70;99.90;;;;;;5084610;28;20667;-60
2022/01/05 02:20:27;;;;;;;0.80;0.80;;;3.70;99.90;;;;;;5084549;28;20531;-59
2022/01/05 02:23:06;;;;;;;0.57;0.50;;;3.60;99.90;;;;;;5084568;28;20675;-59
2022/01/05 02:25:46;;;;;;;0.68;0.68;;;3.60;99.90;;;;;;5075312;28;20685;-59
2022/01/05 02:28:26;;;;;;;0.85;0.85;;;3.60;99.90;;;;;;5138620;27;20575;-59
2022/01/05 02:31:06;;;;;;;0.40;0.40;;;3.60;99.90;;;;;;5078032;28;20564;-59
2022/01/05 02:33:46;;;;;;;0.30;0.30;;;3.60;99.90;;;;;;5083184;28;21031;-59
2022/01/05 02:36:26;;;;;;;0.75;0.75;;;3.60;99.90;;;;;;5084190;27;21099;-57
2022/01/05 02:39:05;;;;;;;0.93;0.93;;;3.50;99.90;;;;;;5084289;28;20559;-60
2022/01/05 02:41:45;;;;;;;1.30;0.93;;;3.60;99.90;;;;;;5145327;27;20658;-59
2022/01/05 02:44:25;;;;;;;1.05;1.05;;;3.50;99.90;;;;;;5083668;27;20679;-59
2022/01/05 02:47:05;;;;;;;0.88;0.70;;;3.50;99.90;;;;;;5104879;27;20952;-59
2022/01/05 02:49:45;;;;;;;1.05;1.05;;;3.50;99.90;;;;;;5084159;27;20548;-59
2022/01/05 02:52:24;;;;;;;0.50;0.50;;;3.50;99.90;;;;;;5084487;27;21162;-59
2022/01/05 02:55:06;;;;;;;0.50;0.50;;;3.50;99.90;;;;;;5141217;27;20664;-59
2022/01/05 02:57:46;;;;;;;1.55;1.45;;;3.50;99.90;;;;;;5083449;27;20539;-59
2022/01/05 03:00:25;;;;;;;0.45;0.40;;;3.50;99.90;;;;;;5145614;27;20743;-59
2022/01/05 03:03:05;;;;;;;1.42;0.50;;;3.50;99.90;;;;;;5084526;28;20567;-59
2022/01/05 03:05:45;;;;;;;1.08;0.68;;;3.50;99.90;;;;;;5145138;27;20926;-59
2022/01/05 03:08:25;;;;;;;0.70;0.70;;;3.40;99.90;;;;;;5146052;27;20959;-59
2022/01/05 03:11:05;;;;;;;1.02;0.98;;;3.40;99.90;;;;;;5083852;27;20543;-59
2022/01/05 03:13:46;;;;;;;0.77;0.77;;;3.40;99.90;;;;;;5084141;27;21092;-59
2022/01/05 03:16:24;;;;;;;1.08;0.85;;;3.40;99.90;;;;;;5084235;28;20672;-59
2022/01/05 03:19:05;;;;;;;0.70;0.68;;;3.40;99.90;;;;;;5104890;27;20681;-59
2022/01/05 03:21:44;;;;;;;1.20;1.13;;;3.40;99.90;;;;;;5084532;28;20983;-59
2022/01/05 03:24:24;;;;;;;0.30;0.30;;;3.40;99.90;;;;;;5124366;27;20547;-59
2022/01/05 03:27:05;;;;;;;0.28;0.28;;;3.40;99.90;;;;;;5084474;27;21072;-59
2022/01/05 03:29:44;;;;;;;0.35;0.35;;;3.40;99.90;;;;;;5145011;27;20551;-59
2022/01/05 03:32:25;;;;;;;0.63;0.63;;;3.50;99.90;;;;;;5104916;27;20674;-59
2022/01/05 03:35:05;;;;;;;0.40;0.40;;;3.40;99.90;;;;;;5083654;28;20655;-59
2022/01/05 03:37:45;;;;;;;0.30;0.30;;;3.40;99.90;;;;;;5146421;27;20542;-59
2022/01/05 03:40:25;;;;;;;0.20;0.20;;;3.40;99.90;;;;;;5145934;27;20657;-59
2022/01/05 03:43:06;;;;;;;0.45;0.45;;;3.40;99.90;;;;;;5084209;28;20671;-59
2022/01/05 03:45:47;;;;;;;0.45;0.45;;;3.40;99.90;;;;;;5124837;27;20540;-59
2022/01/05 03:48:27;;;;;;;0.40;0.40;;;3.40;99.90;;;;;;5125225;27;21069;-59
2022/01/05 03:51:07;;;;;;;0.50;0.50;;;3.40;99.90;;;;;;5104616;27;20657;-59
2022/01/05 03:53:47;;;;;;;0.47;0.47;;;3.50;99.90;;;;;;5145844;27;20546;-59
2022/01/05 03:56:27;;;;;;;0.60;0.60;;;3.50;99.90;;;;;;5124717;27;20544;-58
2022/01/05 03:59:06;;;;;;;0.63;0.63;;;3.50;99.90;;;;;;5084285;28;20683;-59
2022/01/05 04:01:46;;;;;;;0.32;0.32;;;3.50;99.90;;;;;;5084229;28;20687;-59
2022/01/05 04:04:26;;;;;;;0.30;0.30;;;3.50;99.90;;;;;;5083211;28;21201;-59
2022/01/05 04:07:06;;;;;;;0.28;0.28;;;3.50;99.90;;;;;;5084202;28;20660;-58
2022/01/05 04:09:47;;;;;;;0.73;0.52;;;3.50;99.90;;;;;;5104671;27;21067;-59
2022/01/05 04:12:27;;;;;;;0.95;0.90;;;3.50;99.90;;;;;;5146796;27;20534;-58
2022/01/05 04:15:09;;;;;;;0.75;0.75;;;3.50;99.90;;;;;;5084301;27;21092;-59
2022/01/05 04:17:48;;;;;;;0.55;0.55;;;3.40;99.90;;;;;;5146436;27;20951;-59
2022/01/05 04:20:28;;;;;;;0.60;0.60;;;3.50;99.90;;;;;;5104156;27;20534;-59
2022/01/05 04:23:08;;;;;;;0.52;0.52;;;3.40;99.90;;;;;;5084648;27;20999;-59
2022/01/05 04:25:48;;;;;;;0.45;0.45;;;3.40;99.90;;;;;;5083590;27;20863;-58
2022/01/05 04:28:28;;;;;;;0.47;0.47;;;3.40;99.90;;;;;;5079562;28;20674;-59
2022/01/05 04:31:08;;;;;;;0.65;0.65;;;3.40;99.90;;;;;;5084043;27;20547;-59
2022/01/05 04:33:47;;;;;;;0.70;0.70;;;3.40;99.90;;;;;;5084472;28;21039;-59
2022/01/05 04:36:27;;;;;;;0.60;0.60;;;3.40;99.90;;;;;;5145547;27;21096;-59
2022/01/05 04:39:07;;;;;;;1.15;1.10;;;3.40;99.90;;;;;;5144841;27;20546;-59
2022/01/05 04:41:47;;;;;;;1.55;0.40;;;3.40;99.90;;;;;;5084307;27;20544;-59
2022/01/05 04:44:27;;;;;;;0.60;0.60;;;3.40;99.90;;;;;;5083533;27;20536;-59
2022/01/05 04:47:08;;;;;;;0.50;0.50;;;3.40;99.90;;;;;;5084358;28;21032;-59
2022/01/05 04:49:46;;;;;;;0.52;0.52;;;3.40;99.90;;;;;;5083428;27;20679;-59
2022/01/05 04:52:26;;;;;;;0.40;0.40;;;3.30;99.90;;;;;;5084252;28;20679;-59
2022/01/05 04:55:07;;;;;;;1.17;0.75;;;3.40;99.90;;;;;;5083655;28;20668;-59
2022/01/05 04:57:47;;;;;;;0.57;0.57;;;3.40;99.90;;;;;;5083453;28;21217;-59
2022/01/05 05:00:27;;;;;;;0.47;0.47;;;3.30;99.90;;;;;;5084021;27;20543;-59
2022/01/05 05:03:07;;;;;;;0.13;0.13;;;3.30;99.90;;;;;;5085009;27;20557;-59
2022/01/05 05:05:47;;;;;;;0.55;0.55;;;3.40;99.90;;;;;;5083616;27;20535;-59
2022/01/05 05:08:27;;;;;;;0.75;0.75;;;3.40;99.90;;;;;;5084846;28;20676;-59
2022/01/05 05:11:07;;;;;;;0.65;0.65;;;3.30;99.90;;;;;;5084145;27;20584;-59
2022/01/05 05:13:46;;;;;;;0.60;0.60;;;3.40;99.90;;;;;;5084604;28;20539;-59
2022/01/05 05:16:26;;;;;;;0.70;0.60;;;3.40;99.90;;;;;;5104400;27;20658;-59
2022/01/05 05:19:06;;;;;;;0.85;0.85;;;3.40;99.90;;;;;;5084615;27;20561;-59
2022/01/05 05:21:46;;;;;;;1.08;0.65;;;3.40;99.90;;;;;;5124865;27;21057;-59
2022/01/05 05:24:26;;;;;;;0.57;0.57;;;3.40;99.90;;;;;;5082620;28;21196;-59
2022/01/05 05:27:06;;;;;;;0.70;0.70;;;3.50;99.90;;;;;;5084498;28;20684;-59
2022/01/05 05:29:45;;;;;;;0.80;0.80;;;3.50;99.90;;;;;;5083887;28;20684;-59
2022/01/05 05:32:25;;;;;;;0.60;0.55;;;3.50;99.90;;;;;;5105046;27;20538;-59
2022/01/05 05:35:06;;;;;;;1.00;0.77;;;3.50;99.90;;;;;;5084021;28;20679;-59
2022/01/05 05:37:46;;;;;;;1.95;1.15;;;3.50;99.90;;;;;;5084690;27;20544;-59
2022/01/05 05:40:26;;;;;;;0.50;0.50;;;3.60;99.90;;;;;;5125427;27;20529;-59
2022/01/05 05:43:06;;;;;;;1.13;1.00;;;3.50;99.90;;;;;;5084835;28;20656;-59
2022/01/05 05:45:46;;;;;;;1.40;1.30;;;3.60;99.90;;;;;;5104330;27;20564;-59
2022/01/05 05:48:26;;;;;;;0.88;0.88;;;3.60;99.90;;;;;;5084606;27;20719;-59
2022/01/05 05:51:06;;;;;;;0.85;0.85;;;3.60;99.90;;;;;;5145956;27;20658;-59
2022/01/05 05:53:45;;;;;;;0.40;0.40;;;3.60;99.90;;;;;;5084445;28;20667;-59
2022/01/05 05:56:25;;;;;;;0.73;0.73;;;3.60;99.90;;;;;;5083814;27;20578;-59
2022/01/05 05:59:05;;;;;;;0.73;0.73;;;3.60;99.90;;;;;;5084257;27;20548;-59
2022/01/05 06:01:45;;;;;;;1.05;1.05;;;3.60;99.90;;;;;;5125440;27;20540;-57
2022/01/05 06:04:25;;;;;;;0.55;0.55;;;3.70;99.90;;;;;;5081940;28;20523;-59
2022/01/05 06:07:05;;;;;;;0.60;0.60;;;3.70;99.90;;;;;;5146336;27;20538;-60
2022/01/05 06:09:44;;;;;;;0.60;0.60;;;3.70;99.90;;;;;;5104822;27;20677;-59
2022/01/05 06:12:24;;;;;;;0.63;0.63;;;3.70;99.90;;;;;;5084466;28;21022;-59
2022/01/05 06:15:05;;;;;;;0.63;0.63;;;3.70;99.90;;;;;;5084463;27;21069;-59
2022/01/05 06:17:44;;;;;;;0.90;0.90;;;3.80;99.90;;;;;;5122971;27;20564;-58
2022/01/05 06:20:24;;;;;;;0.40;0.40;;;3.80;99.90;;;;;;5082961;28;20700;-59
2022/01/05 06:23:04;;;;;;;1.10;1.10;;;3.80;99.90;;;;;;5084468;27;20948;-59
2022/01/05 06:25:44;;;;;;;0.70;0.60;;;3.90;99.90;;;;;;5083728;28;21026;-59
2022/01/05 06:28:23;;;;;;;0.60;0.60;;;4.00;99.90;;;;;;5079923;27;20921;-59
2022/01/05 06:31:03;;;;;;;0.95;0.85;;;4.00;99.90;;;;;;5144036;27;20684;-59
2022/01/05 06:33:43;;;;;;;0.60;0.60;;;4.00;99.90;;;;;;5083042;27;20569;-59
2022/01/05 06:36:23;;;;;;;1.08;1.08;;;4.10;99.90;;;;;;5104028;27;20562;-59
2022/01/05 06:39:03;;;;;;;0.40;0.40;;;4.10;99.90;;;;;;5084517;28;21016;-59
2022/01/05 06:41:42;;;;;;;0.95;0.73;;;4.10;99.90;;;;;;5084312;27;20907;-59
2022/01/05 06:44:22;;;;;;;0.85;0.85;;;4.10;99.90;;;;;;5083936;28;21125;-59
2022/01/05 06:47:02;;;;;;;1.17;0.93;;;4.10;99.90;;;;;;5084961;27;20547;-59
2022/01/05 06:49:42;;;;;;;0.30;0.30;;;4.10;99.90;;;;;;5125944;27;20540;-58
2022/01/05 06:52:22;;;;;;;1.75;1.20;;;4.20;99.90;;;;;;5085305;27;20539;-59
2022/01/05 06:55:01;;;;;;;1.20;1.10;;;4.20;99.90;;;;;;5124425;27;20548;-59
2022/01/05 06:57:42;;;;;;;0.65;0.65;;;4.20;99.90;;;;;;5084760;28;20668;-59
2022/01/05 07:00:26;;;;;;;0.40;0.40;;;4.20;99.90;;;;;;5084443;28;20543;-59
2022/01/05 07:03:06;;;;;;;0.75;0.75;;;4.20;99.90;;;;;;5084536;28;20676;-59
2022/01/05 07:05:46;;;;;;;0.93;0.93;;;4.20;99.90;;;;;;5084112;28;20547;-59
2022/01/05 07:08:25;;;;;;;0.45;0.45;;;4.20;99.90;;;;;;5084770;28;20683;-59
2022/01/05 07:11:05;;;;;;;0.75;0.50;;;4.30;99.90;;;;;;5084703;28;20683;-59
2022/01/05 07:13:45;;;;;;;0.73;0.73;;;4.30;99.90;;;;;;5145699;27;21198;-59
2022/01/05 07:16:25;;;;;;;0.75;0.75;;;4.30;99.90;;;;;;5145914;27;20666;-59
2022/01/05 07:19:05;;;;;;;0.45;0.32;;;4.30;99.90;;;;;;5105023;27;20562;-59
2022/01/05 07:21:44;;;;;;;0.70;0.70;;;4.30;99.90;;;;;;5146125;27;20538;-59
2022/01/05 07:24:24;;;;;;;0.55;0.55;;;4.30;99.90;;;;;;5084875;28;20687;-59
2022/01/05 07:27:05;;;;;;;0.20;0.20;;;4.30;99.90;;;;;;5125520;27;20535;-60
2022/01/05 07:29:44;;;;;;;0.13;0.13;;;4.30;99.90;;;;;;5084397;28;20672;-59
2022/01/05 07:32:24;;;;;;;0.30;0.30;;;4.30;99.90;;;;;;5104597;27;20556;-59
2022/01/05 07:35:04;;;;;;;0.60;0.57;;;4.30;99.90;;;;;;5083864;27;20544;-59
2022/01/05 07:37:43;;;;;;;0.25;0.20;;;4.30;99.90;;;;;;5125739;27;20945;-59
2022/01/05 07:40:23;;;;;;;0.40;0.38;;;4.30;99.90;;;;;;5104466;27;20611;-59
2022/01/05 07:43:06;;;;;;;0.32;0.32;;;4.30;99.90;;;;;;5146057;27;20681;-59
2022/01/05 07:45:46;;;;;;;0.28;0.28;;;4.30;99.90;;;;;;5083724;28;20636;-59
2022/01/05 07:48:26;;;;;;;0.10;0.10;;;4.30;99.90;;;;;;5084718;28;20700;-59
2022/01/05 07:51:06;;;;;;;0.10;0.10;;;4.30;99.90;;;;;;5124797;27;20544;-59
2022/01/05 07:53:46;;;;;;;0.28;0.28;;;4.30;99.90;;;;;;5125614;27;20687;-59
2022/01/05 07:56:25;;;;;;;0.10;0.10;;;4.30;99.90;;;;;;5084157;27;20540;-59
2022/01/05 07:59:06;;;;;;;0.50;0.50;;;4.40;99.90;;;;;;5084594;27;20687;-59
2022/01/05 08:01:45;;;;;;;0.10;0.10;;;4.40;99.90;;;;;;5145603;27;20542;-59
2022/01/05 08:04:25;;;;;;;0.20;0.20;;;4.30;99.90;;;;;;5145379;27;20653;-59
2022/01/05 08:07:05;;;;;;;0.10;0.10;;;4.30;99.90;;;;;;5084821;28;20672;-59
2022/01/05 08:09:45;;;;;;;0.10;0.10;;;4.30;99.90;;;;;;5084494;28;20570;-59
2022/01/05 08:12:24;;;;;;;0.20;0.20;;;4.20;99.90;;;;;;5084714;27;21104;-59
2022/01/05 08:15:05;;;;;;;0.10;0.10;;;4.10;99.90;;;;;;5084433;28;20667;-58
2022/01/05 08:17:44;;;;;;;0.55;0.30;;;3.90;99.90;;;;;;5084327;28;20548;-59
2022/01/05 08:20:24;;;;;;;0.10;0.10;;;3.70;99.90;;;;;;5079905;27;21052;-59
2022/01/05 08:23:05;;;;;;;0.20;0.20;;;3.40;99.90;;;;;;5145617;27;20591;-59
2022/01/05 08:25:43;;;;;;;0.17;0.00;;;3.20;99.90;;;;;;5137351;27;20668;-59
2022/01/05 08:28:23;;;;;;;0.22;0.10;;;3.10;99.90;;;;;;5075276;27;20569;-59
2022/01/05 08:31:03;;;;;;;0.10;0.00;;;3.00;99.90;;;;;;5080791;28;20687;-59
2022/01/05 08:33:43;;;;;;;0.93;0.10;;;3.00;99.90;;;;;;5074235;28;21164;-59
2022/01/05 08:36:23;;;;;;;0.88;0.55;;;2.90;99.90;;;;;;5080637;28;21201;-59
2022/01/05 08:39:04;;;;;;;2.35;0.20;;;2.90;99.90;;;;;;5066821;27;21002;-59
2022/01/05 08:41:44;;;;;;;0.63;0.30;;;2.90;99.90;;;;;;5083819;28;20672;-60
2022/01/05 08:44:24;;;;;;;0.35;0.20;;;2.80;99.90;;;;;;5099113;27;21020;-59
2022/01/05 08:47:05;;;;;;;0.32;0.20;;;2.80;99.90;;;;;;5144081;27;20604;-59
2022/01/05 08:49:43;;;;;;;1.08;0.28;;;2.80;99.90;;;;;;5072415;28;20705;-59
2022/01/05 08:52:23;;;;;;;0.38;0.25;;;2.70;99.90;;;;;;5145553;27;20669;-59
2022/01/05 08:55:04;;;;;;;1.27;0.40;;;2.70;99.90;;;;;;5118242;27;20699;-60
2022/01/05 08:57:44;;;;;;;0.73;0.32;;;2.50;99.90;;;;;;5123483;27;20540;-59
2022/01/05 09:00:23;;;;;;;0.82;0.38;;;2.50;99.90;;;;;;5081524;27;21348;-59
2022/01/05 09:03:03;;;;;;;0.75;0.40;;;2.60;99.90;;;;;;5084489;28;20543;-59
2022/01/05 09:05:43;;;;;;;1.92;0.93;;;2.60;99.90;;;;;;5142637;27;20681;-59
2022/01/05 09:08:22;;;;;;;1.85;0.60;;;2.60;99.90;;;;;;5077578;27;20622;-59
2022/01/05 09:11:02;;;;;;;2.28;0.60;;;2.70;99.90;;;;;;5087258;27;21087;-59
2022/01/05 09:13:42;;;;;;;1.90;0.60;;;2.60;99.90;;;;;;5067125;28;21429;-59
2022/01/05 09:16:22;;;;;;;1.90;0.57;;;2.70;99.90;;;;;;5094202;27;20603;-59
2022/01/05 09:19:03;;;;;;;2.35;0.70;;;2.70;99.90;;;;;;5114975;27;20585;-60
2022/01/05 09:21:43;;;;;;;1.55;0.70;;;2.80;99.90;;;;;;5099151;27;20589;-59
2022/01/05 09:24:25;;;;;;;1.08;0.47;;;2.90;99.90;;;;;;5095301;27;20687;-60
2022/01/05 09:27:06;;;;;;;1.27;0.60;;;2.90;99.90;;;;;;5077771;28;21225;-59
2022/01/05 09:29:46;;;;;;;0.93;0.40;;;2.90;99.90;;;;;;5083507;27;20572;-59
2022/01/05 09:32:26;;;;;;;1.48;0.70;;;2.80;99.90;;;;;;5103896;27;20693;-59
2022/01/05 09:35:08;;;;;;;1.30;1.10;;;2.80;99.90;;;;;;5141841;27;21193;-59
2022/01/05 09:37:54;;;;;;;3.15;0.82;;;2.90;99.90;;;;;;5105124;27;20537;-59
2022/01/05 09:43:30;;;;;;;1.95;0.40;;;3.10;99.90;;;;;;5146869;27;20761;-59
2022/01/05 09:46:20;;;;;;;1.58;0.40;;;3.30;99.90;;;;;;5122528;27;20704;-59
2022/01/05 09:49:10;;;;;;;1.65;0.98;;;3.40;99.90;;;;;;5068062;28;20670;-59
2022/01/05 09:51:52;;;;;;;2.10;0.57;;;3.50;99.90;;;;;;5071465;27;20678;-59
2022/01/05 09:54:34;;;;;;;1.17;0.52;;;3.50;99.90;;;;;;5083132;27;20548;-59
2022/01/05 09:57:14;;;;;;;0.60;0.35;;;3.40;99.90;;;;;;5104698;27;20546;-59
2022/01/05 09:59:55;;;;;;;0.98;0.40;;;3.20;99.90;;;;;;5085123;27;20552;-59
2022/01/05 10:02:35;;;;;;;0.95;0.40;;;3.10;99.90;;;;;;5104849;27;20875;-59
2022/01/05 10:05:16;;;;;;;2.08;0.38;;;3.20;99.90;;;;;;5083757;28;20660;-59
2022/01/05 10:07:57;;;;;;;2.03;0.73;;;3.30;99.90;;;;;;5081140;27;20566;-59
2022/01/05 10:10:36;;;;;;;1.50;0.32;;;3.40;99.90;;;;;;5143074;27;21206;-59
2022/01/05 10:13:16;;;;;;;0.73;0.52;;;3.40;99.90;;;;;;5083924;27;21113;-60
2022/01/05 10:15:56;;;;;;;0.55;0.50;;;3.50;99.90;;;;;;5083950;28;20668;-59
2022/01/05 10:18:42;;;;;;;0.43;0.30;;;3.60;99.90;;;;;;5146221;27;20595;-59
2022/01/05 10:21:22;;;;;;;0.88;0.65;;;3.60;99.90;;;;;;5104299;27;20650;-59
2022/01/05 10:24:02;;;;;;;1.02;0.47;;;3.70;99.90;;;;;;5084197;27;20555;-59
2022/01/05 10:26:42;;;;;;;0.57;0.50;;;3.70;99.90;;;;;;5082317;28;20635;-59
2022/01/05 10:29:21;;;;;;;1.55;0.77;;;3.80;99.90;;;;;;5063793;28;21066;-59
2022/01/05 10:32:02;;;;;;;1.23;0.80;;;3.80;99.90;;;;;;5083450;28;21204;-59
2022/01/05 10:34:42;;;;;;;1.40;0.70;;;3.60;99.90;;;;;;5078298;28;21193;-59
2022/01/05 10:37:25;;;;;;;0.77;0.60;;;3.50;99.90;;;;;;5122679;27;20655;-59
2022/01/05 10:40:17;;;;;;;0.93;0.80;;;3.50;99.90;;;;;;5083362;28;20683;-59
2022/01/05 10:42:58;;;;;;;1.15;0.55;;;3.70;99.90;;;;;;5104710;27;20677;-59
2022/01/05 10:45:42;;;;;;;1.85;0.50;;;3.70;99.90;;;;;;5083685;28;20663;-59
2022/01/05 10:48:24;;;;;;;2.10;0.77;;;3.70;99.90;;;;;;5085036;27;20543;-59
2022/01/05 10:51:07;;;;;;;1.17;0.55;;;3.80;99.90;;;;;;5104957;27;20530;-59
2022/01/05 10:53:47;;;;;;;1.10;0.73;;;3.90;99.90;;;;;;5085002;27;20540;-59
2022/01/05 10:56:30;;;;;;;0.80;0.80;;;3.90;99.90;;;;;;5081753;28;20563;-59
2022/01/05 10:59:10;;;;;;;0.70;0.70;;;4.10;99.90;;;;;;5080878;27;21036;-59
2022/01/05 11:01:51;;;;;;;1.92;0.90;;;4.20;99.90;;;;;;5121994;27;20667;-59
2022/01/05 11:04:31;;;;;;;1.35;0.82;;;4.40;99.90;;;;;;5145214;27;20538;-59
2022/01/05 11:07:20;;;;;;;1.63;0.85;;;4.40;99.90;;;;;;5117337;27;20549;-59
2022/01/05 11:10:02;;;;;;;1.38;0.80;;;4.00;99.90;;;;;;5146426;27;20547;-59
2022/01/05 11:12:44;;;;;;;2.28;0.68;;;3.50;99.90;;;;;;5085179;27;20892;-59
2022/01/05 11:15:29;;;;;;;1.25;1.00;;;3.10;99.90;;;;;;5145085;27;20673;-59
2022/01/05 11:18:14;;;;;;;0.65;0.65;;;2.90;99.90;;;;;;5078419;28;21007;-59
2022/01/05 11:20:58;;;;;;;1.40;0.73;;;3.00;99.90;;;;;;5081585;27;20563;-59
2022/01/05 11:23:39;;;;;;;1.67;0.90;;;3.20;99.90;;;;;;5079818;28;21193;-59
2022/01/05 11:26:19;;;;;;;1.08;0.85;;;3.50;99.90;;;;;;5077852;27;21170;-59
2022/01/05 11:28:58;;;;;;;1.85;1.00;;;4.10;99.90;;;;;;5081941;27;20585;-59
2022/01/05 11:31:38;;;;;;;2.33;1.00;;;4.60;99.90;;;;;;5104479;27;20541;-59
2022/01/05 11:34:18;;;;;;;1.23;1.00;;;4.90;99.90;;;;;;5146113;27;20560;-59
2022/01/05 11:37:01;;;;;;;1.35;1.25;;;4.70;99.90;;;;;;5080876;27;20941;-59
2022/01/05 11:39:45;;;;;;;5.15;0.90;;;4.40;99.90;;;;;;5078621;28;21228;-59
2022/01/05 11:42:30;;;;;;;1.50;1.40;;;4.00;99.90;;;;;;5164252;27;20548;-59
2022/01/05 11:45:10;;;;;;;1.10;0.80;;;3.80;99.90;;;;;;5082556;27;20574;-59
2022/01/05 11:47:50;;;;;;;1.55;0.70;;;3.80;99.90;;;;;;5084221;28;20688;-59
2022/01/05 11:50:29;;;;;;;2.17;0.80;;;3.80;99.90;;;;;;5125497;27;20668;-59
2022/01/05 11:53:09;;;;;;;1.38;0.90;;;3.90;99.90;;;;;;5146040;27;20669;-59
2022/01/05 11:56:11;;;;;;;3.20;0.90;;;4.00;99.90;;;;;;5118929;27;20773;-59
2022/01/05 11:58:58;;;;;;;2.13;0.90;;;4.00;99.90;;;;;;5124100;27;20548;-59
2022/01/05 12:01:39;;;;;;;1.65;0.82;;;3.90;99.90;;;;;;5141342;27;20669;-59
2022/01/05 12:04:20;;;;;;;1.33;0.75;;;4.00;99.90;;;;;;5083847;28;20671;-59
2022/01/05 12:07:04;;;;;;;3.65;1.45;;;4.10;99.90;;;;;;5146354;27;20539;-59
2022/01/05 12:09:52;;;;;;;1.95;0.90;;;4.10;99.90;;;;;;5078890;28;20703;-59
2022/01/05 12:12:32;;;;;;;2.75;0.47;;;4.00;99.90;;;;;;5084214;27;20566;-59
2022/01/05 12:15:11;;;;;;;1.60;0.88;;;4.10;99.90;;;;;;5083455;28;21200;-59
2022/01/05 12:18:01;;;;;;;1.08;0.98;;;4.10;99.90;;;;;;5080778;27;20562;-59
2022/01/05 12:20:41;;;;;;;1.60;0.77;;;4.00;99.90;;;;;;5100059;27;20634;-59
2022/01/05 12:23:24;;;;;;;1.15;0.80;;;3.80;99.90;;;;;;5135354;27;20613;-59
2022/01/05 12:26:17;;;;;;;3.55;0.90;;;3.60;99.90;;;;;;5084069;27;20548;-59
2022/01/05 12:28:58;;;;;;;2.58;1.00;;;3.30;99.90;;;;;;5084711;28;20605;-59
2022/01/05 12:31:59;;;;;;;2.05;1.00;;;3.30;99.90;;;;;;5147308;27;20534;-59
2022/01/05 12:34:58;;;;;;;3.50;1.02;;;3.30;99.90;;;;;;5106263;27;20546;-59
2022/01/05 12:37:46;;;;;;;2.53;0.80;;;3.50;99.90;;;;;;5080635;28;20700;-59
2022/01/05 12:40:32;;;;;;;0.98;0.50;;;3.50;99.90;;;;;;5079714;28;21126;-59
2022/01/05 12:43:37;;;;;;;2.67;1.58;;;3.40;99.90;;;;;;5143348;27;20600;-59
2022/01/05 12:46:33;;;;;;;1.30;0.80;;;3.50;99.90;;;;;;5105576;27;20596;-59
2022/01/05 12:49:14;;;;;;;1.98;0.80;;;3.70;99.90;;;;;;5084586;28;20617;-59
2022/01/05 12:52:01;;;;;;;2.03;0.93;;;3.90;99.90;;;;;;5147514;27;21119;-59
2022/01/05 12:54:52;;;;;;;3.38;0.90;;;4.10;99.90;;;;;;5144325;27;20599;-59
2022/01/05 12:57:31;;;;;;;0.77;0.40;;;4.20;99.90;;;;;;5086287;27;20800;-59
2022/01/05 13:00:12;;;;;;;1.52;1.17;;;4.00;99.90;;;;;;5147526;27;20547;-59
2022/01/05 13:02:51;;;;;;;1.48;0.90;;;3.70;99.90;;;;;;5086399;27;20566;-59
2022/01/05 13:05:33;;;;;;;2.95;1.50;;;3.40;99.90;;;;;;5085593;27;20580;-59
2022/01/05 13:08:14;;;;;;;1.50;0.60;;;3.30;99.90;;;;;;5103740;27;20607;-59
2022/01/05 13:10:54;;;;;;;1.38;1.27;;;3.40;99.90;;;;;;5106366;27;20599;-59
2022/01/05 13:13:33;;;;;;;4.57;1.10;;;3.40;99.90;;;;;;5106269;27;20603;-59
2022/01/05 13:16:13;;;;;;;2.58;1.38;;;3.30;99.90;;;;;;5144704;27;20628;-59
2022/01/05 13:18:53;;;;;;;1.80;0.90;;;3.30;99.90;;;;;;5084996;28;20680;-59
2022/01/05 13:21:45;;;;;;;1.25;0.82;;;3.30;99.90;;;;;;5139923;27;21046;-59
2022/01/05 13:24:55;;;;;;;1.95;1.10;;;3.20;99.90;;;;;;5122570;27;20709;-59
2022/01/05 13:27:38;;;;;;;3.20;1.23;;;3.10;99.90;;;;;;5140582;27;20617;-59
2022/01/05 13:30:19;;;;;;;1.60;1.10;;;3.00;99.90;;;;;;5126166;27;20625;-59
2022/01/05 13:33:02;;;;;;;3.75;1.00;;;3.00;99.90;;;;;;5126171;27;20636;-59
2022/01/05 13:35:42;;;;;;;3.78;0.90;;;3.00;99.90;;;;;;5085355;27;20551;-59
2022/01/05 13:38:23;;;;;;;3.95;1.15;;;3.00;99.90;;;;;;5140249;27;20607;-59
2022/01/05 13:41:04;;;;;;;1.58;1.23;;;2.90;99.90;;;;;;5117465;27;20540;-59
2022/01/05 13:43:44;;;;;;;2.60;1.00;;;2.90;99.90;;;;;;5074714;27;20559;-59
2022/01/05 13:46:24;;;;;;;3.55;1.88;;;2.80;99.90;;;;;;5080452;27;21151;-59
2022/01/05 13:49:15;;;;;;;3.70;1.30;;;2.80;99.90;;;;;;5085434;27;21150;-60
2022/01/05 13:52:07;;;;;;;7.00;2.83;;;2.70;99.90;;;;;;5084306;27;20935;-60
2022/01/05 13:54:46;;;;;;;2.55;1.10;;;2.60;99.90;;;;;;5076285;27;20592;-59
2022/01/05 13:57:30;;;;;;;2.60;1.20;;;2.50;99.90;;;;;;5082262;28;20688;-59
2022/01/05 14:00:12;;;;;;;3.05;2.17;;;2.50;99.90;;;;;;5081138;27;20564;-60
2022/01/05 14:02:52;;;;;;;4.05;2.53;;;2.40;99.90;;;;;;5085604;28;21026;-60
2022/01/05 14:05:32;;;;;;;6.30;3.20;;;2.40;99.90;;;;;;5103990;27;20646;-60
2022/01/05 14:08:11;;;;;;;3.78;1.77;;;2.30;99.90;;;;;;5131581;27;20661;-60
2022/01/05 14:11:03;;;;;;;3.85;2.22;;;2.20;99.90;;;;;;5075415;27;20557;-60
2022/01/05 14:13:48;;;;;;;2.95;1.33;;;2.20;99.90;;;;;;5085425;28;20563;-60